sensor_id;sensor_type;location;lat;lon;timestamp;pressure;altitude;pressure_sealevel;temperature;humidity
36692;BME280;22678;52.052;4.242;2023-02-01T00:00:00;102095.97;;;6.79;76.16
36692;BME280;22678;52.052;4.242;2023-02-01T00:02:25;102102.03;;;6.78;76.14
36692;BME280;22678;52.052;4.242;2023-02-01T00:04:51;102103.81;;;6.79;76.44
36692;BME280;22678;52.052;4.242;2023-02-01T00:07:16;102116.91;;;6.79;76.31
36692;BME280;22678;52.052;4.242;2023-02-01T00:09:41;102109.81;;;6.75;76.10
36692;BME280;22678;52.052;4.242;2023-02-01T00:12:06;102093.91;;;6.68;76.13
36692;BME280;22678;52.052;4.242;2023-02-01T00:14:32;102106.31;;;6.75;76.33
36692;BME280;22678;52.052;4.242;2023-02-01T00:17:04;102119.34;;;6.73;76.35
36692;BME280;22678;52.052;4.242;2023-02-01T00:19:29;102127.22;;;6.75;76.33
36692;BME280;22678;52.052;4.242;2023-02-01T00:21:55;102111.38;;;6.69;76.06
36692;BME280;22678;52.052;4.242;2023-02-01T00:24:20;102115.78;;;6.71;76.02
36692;BME280;22678;52.052;4.242;2023-02-01T00:26:45;102100.84;;;6.65;75.83
36692;BME280;22678;52.052;4.242;2023-02-01T00:29:16;102104.47;;;6.71;75.56
36692;BME280;22678;52.052;4.242;2023-02-01T00:31:42;102101.88;;;6.72;75.69
36692;BME280;22678;52.052;4.242;2023-02-01T00:34:11;102110.75;;;6.77;75.66
36692;BME280;22678;52.052;4.242;2023-02-01T00:36:38;102108.13;;;6.77;75.57
36692;BME280;22678;52.052;4.242;2023-02-01T00:39:03;102095.91;;;6.76;75.60
36692;BME280;22678;52.052;4.242;2023-02-01T00:41:28;102115.19;;;6.81;75.76
36692;BME280;22678;52.052;4.242;2023-02-01T00:43:54;102112.66;;;6.84;76.02
36692;BME280;22678;52.052;4.242;2023-02-01T00:46:20;102102.22;;;6.84;76.24
36692;BME280;22678;52.052;4.242;2023-02-01T00:48:46;102085.44;;;6.76;76.42
36692;BME280;22678;52.052;4.242;2023-02-01T00:51:14;102090.00;;;6.83;76.32
36692;BME280;22678;52.052;4.242;2023-02-01T00:53:41;102056.69;;;6.76;76.34
36692;BME280;22678;52.052;4.242;2023-02-01T00:56:06;102082.28;;;6.88;76.23
36692;BME280;22678;52.052;4.242;2023-02-01T00:58:32;102069.16;;;6.87;76.25
36692;BME280;22678;52.052;4.242;2023-02-01T01:03:31;102078.91;;;6.92;76.37
36692;BME280;22678;52.052;4.242;2023-02-01T01:05:59;102077.13;;;6.91;76.34
36692;BME280;22678;52.052;4.242;2023-02-01T01:08:25;102069.13;;;6.85;76.55
36692;BME280;22678;52.052;4.242;2023-02-01T01:10:51;102076.22;;;6.89;77.04
36692;BME280;22678;52.052;4.242;2023-02-01T01:13:16;102077.16;;;6.93;77.33
36692;BME280;22678;52.052;4.242;2023-02-01T01:15:41;102075.31;;;6.89;77.67
36692;BME280;22678;52.052;4.242;2023-02-01T01:18:07;102079.78;;;6.93;77.79
36692;BME280;22678;52.052;4.242;2023-02-01T01:20:38;102076.13;;;6.86;77.78
36692;BME280;22678;52.052;4.242;2023-02-01T01:23:04;102083.22;;;6.92;78.00
36692;BME280;22678;52.052;4.242;2023-02-01T01:25:30;102097.16;;;6.91;78.18
36692;BME280;22678;52.052;4.242;2023-02-01T01:27:55;102083.06;;;6.86;78.04
36692;BME280;22678;52.052;4.242;2023-02-01T01:30:21;102082.28;;;6.88;78.39
36692;BME280;22678;52.052;4.242;2023-02-01T01:32:46;102068.22;;;6.84;78.69
36692;BME280;22678;52.052;4.242;2023-02-01T01:35:12;102092.66;;;6.85;78.61
36692;BME280;22678;52.052;4.242;2023-02-01T01:37:37;102079.28;;;6.74;78.89
36692;BME280;22678;52.052;4.242;2023-02-01T01:40:04;102087.22;;;6.77;79.06
36692;BME280;22678;52.052;4.242;2023-02-01T01:42:29;102070.44;;;6.69;78.87
36692;BME280;22678;52.052;4.242;2023-02-01T01:47:24;102092.53;;;6.80;79.14
36692;BME280;22678;52.052;4.242;2023-02-01T01:49:50;102081.84;;;6.73;79.25
36692;BME280;22678;52.052;4.242;2023-02-01T01:52:16;102069.75;;;6.76;79.57
36692;BME280;22678;52.052;4.242;2023-02-01T01:54:44;102084.78;;;6.83;79.70
36692;BME280;22678;52.052;4.242;2023-02-01T01:57:23;102063.59;;;6.74;79.58
36692;BME280;22678;52.052;4.242;2023-02-01T01:59:56;102069.78;;;6.78;79.09
36692;BME280;22678;52.052;4.242;2023-02-01T02:02:25;102069.91;;;6.82;79.03
36692;BME280;22678;52.052;4.242;2023-02-01T02:04:50;102082.28;;;6.88;78.87
36692;BME280;22678;52.052;4.242;2023-02-01T02:07:21;102087.53;;;6.90;78.48
36692;BME280;22678;52.052;4.242;2023-02-01T02:09:48;102054.22;;;6.82;78.30
36692;BME280;22678;52.052;4.242;2023-02-01T02:12:13;102058.78;;;6.90;78.38
36692;BME280;22678;52.052;4.242;2023-02-01T02:14:38;102048.31;;;6.90;78.36
36692;BME280;22678;52.052;4.242;2023-02-01T02:22:45;102065.72;;;6.88;78.88
36692;BME280;22678;52.052;4.242;2023-02-01T02:36:06;102053.56;;;6.90;78.73
36692;BME280;22678;52.052;4.242;2023-02-01T02:41:15;102047.41;;;6.88;78.67
36692;BME280;22678;52.052;4.242;2023-02-01T02:44:17;102041.06;;;6.79;78.92
36692;BME280;22678;52.052;4.242;2023-02-01T02:47:11;102034.06;;;6.78;78.95
36692;BME280;22678;52.052;4.242;2023-02-01T02:49:58;102059.63;;;6.89;78.91
36692;BME280;22678;52.052;4.242;2023-02-01T02:53:00;102047.28;;;6.84;79.28
36692;BME280;22678;52.052;4.242;2023-02-01T02:55:45;102043.66;;;6.78;79.18
36692;BME280;22678;52.052;4.242;2023-02-01T02:58:12;102028.13;;;6.84;78.99
36692;BME280;22678;52.052;4.242;2023-02-01T03:00:57;102019.47;;;6.87;78.63
36692;BME280;22678;52.052;4.242;2023-02-01T03:03:42;102015.16;;;6.89;78.61
36692;BME280;22678;52.052;4.242;2023-02-01T03:06:26;102022.09;;;6.87;78.63
36692;BME280;22678;52.052;4.242;2023-02-01T03:08:56;102020.25;;;6.82;78.46
36692;BME280;22678;52.052;4.242;2023-02-01T03:11:23;102012.44;;;6.84;78.30
36692;BME280;22678;52.052;4.242;2023-02-01T03:14:10;102027.25;;;6.83;78.17
36692;BME280;22678;52.052;4.242;2023-02-01T03:16:43;102016.53;;;6.74;78.34
36692;BME280;22678;52.052;4.242;2023-02-01T03:19:22;101999.69;;;6.63;78.61
36692;BME280;22678;52.052;4.242;2023-02-01T03:22:16;102017.47;;;6.76;78.96
36692;BME280;22678;52.052;4.242;2023-02-01T03:25:00;102004.25;;;6.70;78.85
36692;BME280;22678;52.052;4.242;2023-02-01T03:27:32;102009.50;;;6.72;78.80
36692;BME280;22678;52.052;4.242;2023-02-01T03:32:34;102034.00;;;6.75;78.28
36692;BME280;22678;52.052;4.242;2023-02-01T03:35:28;102024.31;;;6.73;78.61
36692;BME280;22678;52.052;4.242;2023-02-01T03:37:59;102022.50;;;6.69;78.77
36692;BME280;22678;52.052;4.242;2023-02-01T03:40:27;102003.19;;;6.63;79.18
36692;BME280;22678;52.052;4.242;2023-02-01T03:42:58;102033.00;;;6.70;79.20
36692;BME280;22678;52.052;4.242;2023-02-01T03:45:35;101989.28;;;6.64;79.24
36692;BME280;22678;52.052;4.242;2023-02-01T03:48:03;102022.53;;;6.70;78.98
36692;BME280;22678;52.052;4.242;2023-02-01T03:50:29;102023.66;;;6.80;78.40
36692;BME280;22678;52.052;4.242;2023-02-01T03:53:10;102014.94;;;6.79;78.16
36692;BME280;22678;52.052;4.242;2023-02-01T03:55:38;101992.09;;;6.72;77.46
36692;BME280;22678;52.052;4.242;2023-02-01T03:58:09;102013.19;;;6.80;77.08
36692;BME280;22678;52.052;4.242;2023-02-01T04:00:36;102016.63;;;6.77;77.30
36692;BME280;22678;52.052;4.242;2023-02-01T04:03:03;102017.47;;;6.76;77.43
36692;BME280;22678;52.052;4.242;2023-02-01T04:05:29;102023.53;;;6.75;77.73
36692;BME280;22678;52.052;4.242;2023-02-01T04:07:55;102006.00;;;6.71;77.97
36692;BME280;22678;52.052;4.242;2023-02-01T04:10:21;102007.84;;;6.75;78.22
36692;BME280;22678;52.052;4.242;2023-02-01T04:12:46;102008.66;;;6.73;78.51
36692;BME280;22678;52.052;4.242;2023-02-01T04:15:11;102002.47;;;6.69;78.50
36692;BME280;22678;52.052;4.242;2023-02-01T04:17:37;101991.84;;;6.63;78.47
36692;BME280;22678;52.052;4.242;2023-02-01T04:20:02;101997.31;;;6.72;78.69
36692;BME280;22678;52.052;4.242;2023-02-01T04:22:29;101986.03;;;6.73;78.58
36692;BME280;22678;52.052;4.242;2023-02-01T04:24:55;101984.97;;;6.66;78.60
36692;BME280;22678;52.052;4.242;2023-02-01T04:27:20;102002.53;;;6.72;78.50
36692;BME280;22678;52.052;4.242;2023-02-01T04:29:45;102011.28;;;6.74;78.11
36692;BME280;22678;52.052;4.242;2023-02-01T04:32:10;102026.09;;;6.74;78.51
36692;BME280;22678;52.052;4.242;2023-02-01T04:34:36;102027.84;;;6.73;78.60
36692;BME280;22678;52.052;4.242;2023-02-01T04:37:02;102037.34;;;6.71;78.74
36692;BME280;22678;52.052;4.242;2023-02-01T04:39:27;102024.97;;;6.64;78.91
36692;BME280;22678;52.052;4.242;2023-02-01T04:41:52;102032.06;;;6.68;79.43
36692;BME280;22678;52.052;4.242;2023-02-01T04:44:18;102027.72;;;6.69;79.71
36692;BME280;22678;52.052;4.242;2023-02-01T04:46:44;102021.59;;;6.68;79.23
36692;BME280;22678;52.052;4.242;2023-02-01T04:49:11;102019.84;;;6.67;79.39
36692;BME280;22678;52.052;4.242;2023-02-01T04:51:36;102013.69;;;6.65;79.40
36692;BME280;22678;52.052;4.242;2023-02-01T04:54:02;101996.09;;;6.59;79.10
36692;BME280;22678;52.052;4.242;2023-02-01T04:56:28;101985.72;;;6.62;79.19
36692;BME280;22678;52.052;4.242;2023-02-01T04:58:53;101967.25;;;6.56;78.63
36692;BME280;22678;52.052;4.242;2023-02-01T05:01:18;101989.91;;;6.56;79.00
36692;BME280;22678;52.052;4.242;2023-02-01T05:03:44;102005.56;;;6.54;78.83
36692;BME280;22678;52.052;4.242;2023-02-01T05:06:09;101983.41;;;6.41;79.21
36692;BME280;22678;52.052;4.242;2023-02-01T05:08:34;101980.81;;;6.41;79.10
36692;BME280;22678;52.052;4.242;2023-02-01T05:11:00;101997.50;;;6.46;79.21
36692;BME280;22678;52.052;4.242;2023-02-01T05:13:28;101996.50;;;6.41;79.31
36692;BME280;22678;52.052;4.242;2023-02-01T05:16:12;102014.28;;;6.55;79.09
36692;BME280;22678;52.052;4.242;2023-02-01T05:18:37;102003.66;;;6.48;79.74
36692;BME280;22678;52.052;4.242;2023-02-01T05:21:03;102023.00;;;6.55;79.82
36692;BME280;22678;52.052;4.242;2023-02-01T05:23:28;102023.84;;;6.54;79.93
36692;BME280;22678;52.052;4.242;2023-02-01T05:25:58;102028.13;;;6.52;80.25
36692;BME280;22678;52.052;4.242;2023-02-01T05:28:24;102016.69;;;6.47;80.51
36692;BME280;22678;52.052;4.242;2023-02-01T05:30:49;102019.41;;;6.52;80.47
36692;BME280;22678;52.052;4.242;2023-02-01T05:33:15;102019.50;;;6.55;80.76
36692;BME280;22678;52.052;4.242;2023-02-01T05:35:40;102001.91;;;6.49;80.33
36692;BME280;22678;52.052;4.242;2023-02-01T05:38:05;102007.09;;;6.47;80.61
36692;BME280;22678;52.052;4.242;2023-02-01T05:40:30;101994.72;;;6.40;80.63
36692;BME280;22678;52.052;4.242;2023-02-01T05:42:56;102009.69;;;6.46;80.62
36692;BME280;22678;52.052;4.242;2023-02-01T05:45:21;101999.22;;;6.46;80.85
36692;BME280;22678;52.052;4.242;2023-02-01T05:47:46;101985.88;;;6.35;80.79
36692;BME280;22678;52.052;4.242;2023-02-01T05:50:12;101985.88;;;6.35;80.65
36692;BME280;22678;52.052;4.242;2023-02-01T05:52:37;102005.16;;;6.40;81.12
36692;BME280;22678;52.052;4.242;2023-02-01T05:55:03;101995.56;;;6.39;81.19
36692;BME280;22678;52.052;4.242;2023-02-01T05:57:28;102005.16;;;6.40;81.38
36692;BME280;22678;52.052;4.242;2023-02-01T05:59:55;102005.00;;;6.34;81.26
36692;BME280;22678;52.052;4.242;2023-02-01T06:02:20;102026.25;;;6.46;81.61
36692;BME280;22678;52.052;4.242;2023-02-01T06:04:46;102040.31;;;6.52;81.82
36692;BME280;22678;52.052;4.242;2023-02-01T06:07:12;102032.38;;;6.47;81.37
36692;BME280;22678;52.052;4.242;2023-02-01T06:09:37;102009.72;;;6.47;81.52
36692;BME280;22678;52.052;4.242;2023-02-01T06:12:03;102021.13;;;6.49;81.16
36692;BME280;22678;52.052;4.242;2023-02-01T06:14:29;102039.66;;;6.59;80.13
36692;BME280;22678;52.052;4.242;2023-02-01T06:16:55;102036.25;;;6.61;79.80
36692;BME280;22678;52.052;4.242;2023-02-01T06:19:21;102037.13;;;6.62;79.55
36692;BME280;22678;52.052;4.242;2023-02-01T06:21:46;102044.13;;;6.63;79.56
36692;BME280;22678;52.052;4.242;2023-02-01T06:24:12;102023.06;;;6.57;79.64
36692;BME280;22678;52.052;4.242;2023-02-01T06:26:38;102038.16;;;6.67;79.91
36692;BME280;22678;52.052;4.242;2023-02-01T06:29:05;102024.81;;;6.58;79.98
36692;BME280;22678;52.052;4.242;2023-02-01T06:31:31;102031.97;;;6.65;80.39
36692;BME280;22678;52.052;4.242;2023-02-01T06:33:57;102041.59;;;6.66;80.07
36692;BME280;22678;52.052;4.242;2023-02-01T06:36:22;102032.81;;;6.64;80.04
36692;BME280;22678;52.052;4.242;2023-02-01T06:38:48;102046.00;;;6.67;80.04
36692;BME280;22678;52.052;4.242;2023-02-01T06:41:13;102049.47;;;6.68;80.30
36692;BME280;22678;52.052;4.242;2023-02-01T06:43:39;102033.66;;;6.63;80.62
36692;BME280;22678;52.052;4.242;2023-02-01T06:46:07;102023.22;;;6.63;80.62
36692;BME280;22678;52.052;4.242;2023-02-01T06:48:32;102017.91;;;6.60;81.05
36692;BME280;22678;52.052;4.242;2023-02-01T06:50:58;102017.03;;;6.61;81.20
36692;BME280;22678;52.052;4.242;2023-02-01T06:53:24;102035.34;;;6.61;81.17
36692;BME280;22678;52.052;4.242;2023-02-01T06:56:01;102030.97;;;6.60;81.16
36692;BME280;22678;52.052;4.242;2023-02-01T06:58:31;101996.28;;;6.34;81.12
36692;BME280;22678;52.052;4.242;2023-02-01T07:00:57;101999.09;;;6.41;81.40
36692;BME280;22678;52.052;4.242;2023-02-01T07:03:23;101995.56;;;6.39;81.04
36692;BME280;22678;52.052;4.242;2023-02-01T07:05:48;101982.22;;;6.30;81.22
36692;BME280;22678;52.052;4.242;2023-02-01T07:08:13;102030.94;;;6.58;80.79
36692;BME280;22678;52.052;4.242;2023-02-01T07:10:39;102031.72;;;6.56;80.37
36692;BME280;22678;52.052;4.242;2023-02-01T07:13:04;101985.09;;;6.38;80.45
36692;BME280;22678;52.052;4.242;2023-02-01T07:15:30;102032.88;;;6.65;80.48
36692;BME280;22678;52.052;4.242;2023-02-01T07:17:55;102019.41;;;6.52;80.84
36692;BME280;22678;52.052;4.242;2023-02-01T07:20:21;102033.66;;;6.63;81.23
36692;BME280;22678;52.052;4.242;2023-02-01T07:22:46;102032.97;;;6.69;81.49
36692;BME280;22678;52.052;4.242;2023-02-01T07:25:11;102018.66;;;6.56;81.42
36692;BME280;22678;52.052;4.242;2023-02-01T07:27:37;102015.97;;;6.53;81.53
36692;BME280;22678;52.052;4.242;2023-02-01T07:30:06;102039.72;;;6.62;81.44
36692;BME280;22678;52.052;4.242;2023-02-01T07:32:32;101999.91;;;6.39;81.29
36692;BME280;22678;52.052;4.242;2023-02-01T07:34:58;102048.69;;;6.70;81.09
36692;BME280;22678;52.052;4.242;2023-02-01T07:37:24;102056.44;;;6.67;81.28
36692;BME280;22678;52.052;4.242;2023-02-01T07:39:52;102041.19;;;6.52;81.83
36692;BME280;22678;52.052;4.242;2023-02-01T07:42:18;102040.19;;;6.47;81.88
36692;BME280;22678;52.052;4.242;2023-02-01T07:44:43;102036.72;;;6.46;81.96
36692;BME280;22678;52.052;4.242;2023-02-01T07:47:09;102045.56;;;6.52;82.08
36692;BME280;22678;52.052;4.242;2023-02-01T07:49:34;102052.47;;;6.49;82.21
36692;BME280;22678;52.052;4.242;2023-02-01T07:52:00;102081.72;;;6.68;81.77
36692;BME280;22678;52.052;4.242;2023-02-01T07:54:25;102074.69;;;6.65;81.81
36692;BME280;22678;52.052;4.242;2023-02-01T07:56:50;102078.31;;;6.71;81.77
36692;BME280;22678;52.052;4.242;2023-02-01T07:59:16;102080.88;;;6.69;81.24
36692;BME280;22678;52.052;4.242;2023-02-01T08:01:42;102067.94;;;6.74;81.24
36692;BME280;22678;52.052;4.242;2023-02-01T08:04:09;102075.75;;;6.72;81.19
36692;BME280;22678;52.052;4.242;2023-02-01T08:06:36;102038.66;;;6.54;81.18
36692;BME280;22678;52.052;4.242;2023-02-01T08:09:02;102045.75;;;6.59;81.46
36692;BME280;22678;52.052;4.242;2023-02-01T08:11:29;102067.97;;;6.75;81.35
36692;BME280;22678;52.052;4.242;2023-02-01T08:13:54;102075.91;;;6.78;80.93
36692;BME280;22678;52.052;4.242;2023-02-01T08:16:20;102072.53;;;6.82;80.37
36692;BME280;22678;52.052;4.242;2023-02-01T08:18:46;102039.06;;;6.69;80.58
36692;BME280;22678;52.052;4.242;2023-02-01T08:21:19;102041.16;;;6.82;80.15
36692;BME280;22678;52.052;4.242;2023-02-01T08:23:47;102040.31;;;6.83;80.45
36692;BME280;22678;52.052;4.242;2023-02-01T08:28:41;102034.47;;;6.94;80.10
36692;BME280;22678;52.052;4.242;2023-02-01T08:31:10;102052.94;;;7.00;80.02
36692;BME280;22678;52.052;4.242;2023-02-01T08:33:35;102019.47;;;6.87;80.03
36692;BME280;22678;52.052;4.242;2023-02-01T08:36:03;102053.84;;;7.02;80.34
36692;BME280;22678;52.052;4.242;2023-02-01T08:38:29;102052.19;;;7.04;80.46
36692;BME280;22678;52.052;4.242;2023-02-01T08:40:55;102051.47;;;7.10;80.26
36692;BME280;22678;52.052;4.242;2023-02-01T08:43:20;102041.66;;;7.01;80.70
36692;BME280;22678;52.052;4.242;2023-02-01T08:45:46;102035.31;;;6.93;80.56
36692;BME280;22678;52.052;4.242;2023-02-01T08:48:11;102059.50;;;7.17;80.21
36692;BME280;22678;52.052;4.242;2023-02-01T08:50:36;102024.19;;;7.00;80.21
36692;BME280;22678;52.052;4.242;2023-02-01T08:53:02;102016.59;;;7.11;79.96
36692;BME280;22678;52.052;4.242;2023-02-01T08:55:27;102020.25;;;7.17;79.80
36692;BME280;22678;52.052;4.242;2023-02-01T08:57:53;102016.91;;;7.23;79.49
36692;BME280;22678;52.052;4.242;2023-02-01T09:00:18;102023.31;;;7.36;79.42
36692;BME280;22678;52.052;4.242;2023-02-01T09:02:44;101999.72;;;7.34;78.62
36692;BME280;22678;52.052;4.242;2023-02-01T09:05:11;101999.66;;;7.31;78.55
36692;BME280;22678;52.052;4.242;2023-02-01T09:07:37;102009.44;;;7.40;78.57
36692;BME280;22678;52.052;4.242;2023-02-01T09:10:03;102033.03;;;7.42;78.25
36692;BME280;22678;52.052;4.242;2023-02-01T09:12:30;102020.06;;;7.46;78.26
36692;BME280;22678;52.052;4.242;2023-02-01T09:14:57;102026.16;;;7.45;77.99
36692;BME280;22678;52.052;4.242;2023-02-01T09:17:25;101952.78;;;7.04;78.32
36692;BME280;22678;52.052;4.242;2023-02-01T09:19:50;102008.25;;;7.27;78.13
36692;BME280;22678;52.052;4.242;2023-02-01T09:22:15;101993.28;;;7.20;78.28
36692;BME280;22678;52.052;4.242;2023-02-01T09:24:41;102008.44;;;7.33;78.20
36692;BME280;22678;52.052;4.242;2023-02-01T09:27:07;102021.75;;;7.44;77.89
36692;BME280;22678;52.052;4.242;2023-02-01T09:29:32;102026.97;;;7.43;77.42
36692;BME280;22678;52.052;4.242;2023-02-01T09:31:57;102033.16;;;7.46;77.79
36692;BME280;22678;52.052;4.242;2023-02-01T09:34:23;102020.16;;;7.49;77.25
36692;BME280;22678;52.052;4.242;2023-02-01T09:36:48;102027.50;;;7.66;76.70
36692;BME280;22678;52.052;4.242;2023-02-01T09:39:13;102028.34;;;7.65;76.66
36692;BME280;22678;52.052;4.242;2023-02-01T09:45:02;102046.69;;;7.65;77.16
36692;BME280;22678;52.052;4.242;2023-02-01T09:47:31;102014.91;;;7.49;76.94
36692;BME280;22678;52.052;4.242;2023-02-01T09:50:08;102051.91;;;7.65;77.00
36692;BME280;22678;52.052;4.242;2023-02-01T10:00:39;102018.44;;;7.51;77.03
36692;BME280;22678;52.052;4.242;2023-02-01T10:03:11;102043.94;;;7.59;76.97
36692;BME280;22678;52.052;4.242;2023-02-01T10:05:54;102029.00;;;7.54;76.92
36692;BME280;22678;52.052;4.242;2023-02-01T10:14:04;102048.16;;;7.53;77.51
36692;BME280;22678;52.052;4.242;2023-02-01T10:23:19;102024.53;;;7.50;77.75
36692;BME280;22678;52.052;4.242;2023-02-01T10:25:44;102044.91;;;7.64;77.68
36692;BME280;22678;52.052;4.242;2023-02-01T10:28:17;102025.59;;;7.59;77.27
36692;BME280;22678;52.052;4.242;2023-02-01T10:30:47;102021.22;;;7.59;77.48
36692;BME280;22678;52.052;4.242;2023-02-01T10:33:23;102043.47;;;7.78;77.07
36692;BME280;22678;52.052;4.242;2023-02-01T10:35:54;102024.94;;;7.67;76.91
36692;BME280;22678;52.052;4.242;2023-02-01T10:38:26;102022.44;;;7.74;76.87
36692;BME280;22678;52.052;4.242;2023-02-01T10:40:55;102046.13;;;7.80;76.75
36692;BME280;22678;52.052;4.242;2023-02-01T10:43:22;102024.31;;;7.79;76.73
36692;BME280;22678;52.052;4.242;2023-02-01T10:45:47;102043.69;;;7.87;76.35
36692;BME280;22678;52.052;4.242;2023-02-01T10:48:13;102002.53;;;7.80;76.39
36692;BME280;22678;52.052;4.242;2023-02-01T10:50:48;102017.84;;;8.03;76.16
36692;BME280;22678;52.052;4.242;2023-02-01T10:53:20;102033.69;;;8.09;76.07
36692;BME280;22678;52.052;4.242;2023-02-01T10:55:48;102025.91;;;8.14;75.50
36692;BME280;22678;52.052;4.242;2023-02-01T10:58:27;102035.59;;;8.16;75.47
36692;BME280;22678;52.052;4.242;2023-02-01T11:00:57;102006.56;;;8.07;75.39
36692;BME280;22678;52.052;4.242;2023-02-01T11:06:02;102016.56;;;8.27;74.20
36692;BME280;22678;52.052;4.242;2023-02-01T11:08:29;102021.97;;;8.34;74.02
36692;BME280;22678;52.052;4.242;2023-02-01T11:11:01;102034.25;;;8.37;74.01
36692;BME280;22678;52.052;4.242;2023-02-01T11:13:28;102025.53;;;8.38;73.94
36692;BME280;22678;52.052;4.242;2023-02-01T11:15:55;102010.50;;;8.28;73.83
36692;BME280;22678;52.052;4.242;2023-02-01T11:18:27;102021.81;;;8.27;74.10
36692;BME280;22678;52.052;4.242;2023-02-01T11:20:53;101987.41;;;8.10;73.64
36692;BME280;22678;52.052;4.242;2023-02-01T11:23:22;102024.31;;;8.20;73.75
36692;BME280;22678;52.052;4.242;2023-02-01T11:25:59;102008.56;;;8.19;73.67
36692;BME280;22678;52.052;4.242;2023-02-01T11:28:29;102024.41;;;8.25;74.07
36692;BME280;22678;52.052;4.242;2023-02-01T11:30:56;102004.19;;;8.19;73.91
36692;BME280;22678;52.052;4.242;2023-02-01T11:33:26;101984.75;;;8.08;73.78
36692;BME280;22678;52.052;4.242;2023-02-01T11:35:56;102000.78;;;8.23;73.51
36692;BME280;22678;52.052;4.242;2023-02-01T11:38:30;101995.44;;;8.17;73.47
36692;BME280;22678;52.052;4.242;2023-02-01T11:46:24;102006.09;;;8.27;73.47
36692;BME280;22678;52.052;4.242;2023-02-01T11:48:53;102026.34;;;8.34;73.44
36692;BME280;22678;52.052;4.242;2023-02-01T11:51:45;102027.22;;;8.36;73.83
36692;BME280;22678;52.052;4.242;2023-02-01T11:54:56;102029.00;;;8.37;73.67
36692;BME280;22678;52.052;4.242;2023-02-01T12:01:10;102033.34;;;8.35;74.34
36692;BME280;22678;52.052;4.242;2023-02-01T12:06:08;102042.03;;;8.32;74.13
36692;BME280;22678;52.052;4.242;2023-02-01T12:11:51;102005.97;;;8.20;74.28
36692;BME280;22678;52.052;4.242;2023-02-01T12:14:24;102012.97;;;8.21;75.02
36692;BME280;22678;52.052;4.242;2023-02-01T12:17:12;102005.06;;;8.20;74.64
36692;BME280;22678;52.052;4.242;2023-02-01T12:23:25;102019.09;;;8.22;74.61
36692;BME280;22678;52.052;4.242;2023-02-01T12:36:50;102001.81;;;8.32;74.89
36692;BME280;22678;52.052;4.242;2023-02-01T12:45:13;101998.47;;;8.39;74.95
36692;BME280;22678;52.052;4.242;2023-02-01T12:47:57;102006.38;;;8.42;74.27
36692;BME280;22678;52.052;4.242;2023-02-01T12:50:31;102002.75;;;8.34;74.39
36692;BME280;22678;52.052;4.242;2023-02-01T12:53:13;101991.44;;;8.36;74.42
36692;BME280;22678;52.052;4.242;2023-02-01T12:55:49;101989.13;;;8.52;74.70
36692;BME280;22678;52.052;4.242;2023-02-01T13:00:50;101986.13;;;8.79;73.95
36692;BME280;22678;52.052;4.242;2023-02-01T13:03:37;101994.06;;;8.82;73.48
36692;BME280;22678;52.052;4.242;2023-02-01T13:06:12;102012.47;;;8.85;73.55
36692;BME280;22678;52.052;4.242;2023-02-01T13:11:26;101981.91;;;8.89;73.69
36692;BME280;22678;52.052;4.242;2023-02-01T13:16:30;101995.31;;;9.06;72.89
36692;BME280;22678;52.052;4.242;2023-02-01T13:19:13;101985.72;;;9.08;72.83
36692;BME280;22678;52.052;4.242;2023-02-01T13:22:11;101986.72;;;9.15;73.00
36692;BME280;22678;52.052;4.242;2023-02-01T13:24:52;101987.56;;;9.12;72.59
36692;BME280;22678;52.052;4.242;2023-02-01T13:27:19;101965.47;;;8.99;73.15
36692;BME280;22678;52.052;4.242;2023-02-01T13:30:07;101991.84;;;9.07;72.67
36692;BME280;22678;52.052;4.242;2023-02-01T13:40:47;101989.66;;;8.81;74.04
36692;BME280;22678;52.052;4.242;2023-02-01T13:43:28;101994.81;;;8.75;74.27
36692;BME280;22678;52.052;4.242;2023-02-01T13:45:57;101988.56;;;8.70;74.51
36692;BME280;22678;52.052;4.242;2023-02-01T13:48:32;101992.97;;;8.71;75.11
36692;BME280;22678;52.052;4.242;2023-02-01T13:51:01;101974.47;;;8.62;75.45
36692;BME280;22678;52.052;4.242;2023-02-01T13:53:31;101988.56;;;8.70;75.14
36692;BME280;22678;52.052;4.242;2023-02-01T13:56:00;101980.53;;;8.59;75.61
36692;BME280;22678;52.052;4.242;2023-02-01T13:58:39;102000.00;;;8.72;75.83
36692;BME280;22678;52.052;4.242;2023-02-01T14:03:57;101999.88;;;8.66;76.21
36692;BME280;22678;52.052;4.242;2023-02-01T14:11:37;101987.63;;;8.65;77.02
36692;BME280;22678;52.052;4.242;2023-02-01T14:19:31;101985.06;;;8.68;77.36
36692;BME280;22678;52.052;4.242;2023-02-01T14:24:53;101988.66;;;8.74;77.64
36692;BME280;22678;52.052;4.242;2023-02-01T14:27:28;101988.59;;;8.71;77.67
36692;BME280;22678;52.052;4.242;2023-02-01T14:29:58;101995.69;;;8.77;77.97
36692;BME280;22678;52.052;4.242;2023-02-01T14:32:30;101993.06;;;8.77;78.02
36692;BME280;22678;52.052;4.242;2023-02-01T14:34:58;101994.00;;;8.79;78.24
36692;BME280;22678;52.052;4.242;2023-02-01T14:37:28;101985.09;;;8.69;78.17
36692;BME280;22678;52.052;4.242;2023-02-01T14:40:25;101997.44;;;8.76;78.30
36692;BME280;22678;52.052;4.242;2023-02-01T14:42:52;101998.22;;;8.71;78.14
36692;BME280;22678;52.052;4.242;2023-02-01T14:47:50;101997.31;;;8.69;78.81
36692;BME280;22678;52.052;4.242;2023-02-01T14:50:32;102003.47;;;8.71;78.89
36692;BME280;22678;52.052;4.242;2023-02-01T14:58:26;101991.16;;;8.67;79.76
36692;BME280;22678;52.052;4.242;2023-02-01T15:00:56;101998.97;;;8.65;79.68
36692;BME280;22678;52.052;4.242;2023-02-01T15:05:57;101993.69;;;8.62;79.25
36692;BME280;22678;52.052;4.242;2023-02-01T15:08:29;102004.25;;;8.67;78.98
36692;BME280;22678;52.052;4.242;2023-02-01T15:10:58;102002.53;;;8.67;79.33
36692;BME280;22678;52.052;4.242;2023-02-01T15:13:27;102000.75;;;8.66;78.85
36692;BME280;22678;52.052;4.242;2023-02-01T15:16:03;102018.28;;;8.67;78.71
36692;BME280;22678;52.052;4.242;2023-02-01T15:18:28;102007.75;;;8.66;78.68
36692;BME280;22678;52.052;4.242;2023-02-01T15:21:00;102012.03;;;8.61;78.71
36692;BME280;22678;52.052;4.242;2023-02-01T15:23:26;102011.34;;;8.71;78.36